Time;durP1;ratioP1;P1;durP2;ratioP2;P2;SDS_P1;SDS_P2;PMS_P1;PMS_P2;Temp;Humidity;BMP_temperature;BMP_pressure;BME280_temperature;BME280_humidity;BME280_pressure;Samples;Min_cycle;Max_cycle;Signal;HPM_P1;HPM_P2
2024/01/09 00:02:22;;;;;;;0.20;0.10;;;;;;;-3.51;65.94;101613.63;5012638;28;20452;-52
2024/01/09 00:04:49;;;;;;;5.03;4.77;;;;;;;-3.31;65.81;101605.09;5001926;28;20481;-53
2024/01/09 00:07:15;;;;;;;0.20;0.10;;;;;;;-3.54;65.57;101606.59;5015343;28;20456;-53
2024/01/09 00:09:42;;;;;;;0.20;0.10;;;;;;;-3.38;65.64;101611.72;5014663;28;20479;-53
2024/01/09 00:12:09;;;;;;;0.20;0.10;;;;;;;-3.66;65.57;101608.59;5002687;28;20529;-53
2024/01/09 00:14:35;;;;;;;0.20;0.10;;;;;;;-3.46;65.79;101610.44;5013543;28;20508;-54
2024/01/09 00:17:02;;;;;;;0.20;0.10;;;;;;;-3.51;65.82;101611.03;5003051;28;20558;-57
2024/01/09 00:19:29;;;;;;;0.20;0.10;;;;;;;-3.57;66.42;101604.72;5015141;28;20604;-53
2024/01/09 00:22:01;;;;;;;0.20;0.10;;;;;;;-3.50;65.88;101602.44;5007657;28;20445;-55
2024/01/09 00:24:27;;;;;;;0.20;0.10;;;;;;;-3.40;65.38;101610.75;5010932;28;20556;-54
2024/01/09 00:26:53;;;;;;;0.20;0.10;;;;;;;-3.20;65.29;101605.63;5006847;28;20492;-55
2024/01/09 00:29:21;;;;;;;0.20;0.10;;;;;;;-3.13;64.56;101611.19;5010903;28;20448;-55
2024/01/09 00:31:48;;;;;;;0.20;0.10;;;;;;;-2.99;64.87;101599.75;5004560;28;20531;-55
2024/01/09 00:34:14;;;;;;;0.20;0.10;;;;;;;-3.32;65.10;101609.41;5015021;28;20472;-55
2024/01/09 00:36:44;;;;;;;0.20;0.10;;;;;;;-3.29;65.71;101612.19;5015295;28;20452;-54
2024/01/09 00:39:11;;;;;;;0.20;0.10;;;;;;;-3.30;64.98;101609.47;5014444;28;20920;-55
2024/01/09 00:41:38;;;;;;;0.20;0.10;;;;;;;-3.19;65.10;101604.81;5014833;28;20507;-54
2024/01/09 00:44:05;;;;;;;0.20;0.10;;;;;;;-3.18;64.90;101603.97;5001716;28;20472;-55
2024/01/09 00:46:31;;;;;;;0.20;0.10;;;;;;;-3.20;65.03;101608.22;5015226;28;20456;-54
2024/01/09 00:48:58;;;;;;;0.20;0.10;;;;;;;-3.09;64.58;101607.03;5010850;28;20453;-55
2024/01/09 00:51:24;;;;;;;0.20;0.10;;;;;;;-3.37;65.23;101605.69;5005830;28;20941;-55
2024/01/09 00:53:51;;;;;;;0.20;0.10;;;;;;;-3.47;65.76;101602.56;5010633;28;20453;-54
2024/01/09 00:56:18;;;;;;;0.20;0.10;;;;;;;-3.27;65.85;101604.44;5006147;28;20503;-55
2024/01/09 00:58:44;;;;;;;0.20;0.10;;;;;;;-3.45;65.90;101609.63;5014910;28;20448;-55
2024/01/09 01:01:11;;;;;;;0.20;0.10;;;;;;;-3.09;65.01;101607.03;5013112;28;20481;-54
2024/01/09 01:03:37;;;;;;;0.20;0.10;;;;;;;-3.15;65.55;101606.72;5001650;28;20923;-55
2024/01/09 01:06:04;;;;;;;0.20;0.10;;;;;;;-3.35;64.74;101618.78;5014909;28;20861;-54
2024/01/09 01:08:30;;;;;;;0.20;0.10;;;;;;;-3.45;64.96;101612.22;5009879;28;20462;-54
2024/01/09 01:10:57;;;;;;;0.20;0.10;;;;;;;-3.41;65.24;101621.09;5006495;28;20457;-55
2024/01/09 01:13:23;;;;;;;0.20;0.10;;;;;;;-3.23;65.09;101610.69;5014035;28;20492;-54
2024/01/09 01:15:50;;;;;;;0.20;0.10;;;;;;;-3.61;67.01;101614.88;5002709;28;20505;-54
2024/01/09 01:18:16;;;;;;;0.20;0.10;;;;;;;-3.67;67.07;101619.78;5012428;28;20455;-55
2024/01/09 01:20:43;;;;;;;0.20;0.10;;;;;;;-3.57;66.86;101619.41;5014403;28;20499;-54
2024/01/09 01:23:10;;;;;;;0.20;0.10;;;;;;;-3.50;66.78;101621.50;5000935;28;20953;-54
2024/01/09 01:25:37;;;;;;;0.20;0.10;;;;;;;-3.30;66.20;101622.47;5014405;28;20476;-54
2024/01/09 01:28:04;;;;;;;0.20;0.10;;;;;;;-3.26;66.09;101629.63;5014275;28;20985;-55
2024/01/09 01:30:30;;;;;;;0.20;0.10;;;;;;;-3.35;66.37;101634.38;5001599;28;20540;-55
2024/01/09 01:32:57;;;;;;;0.20;0.10;;;;;;;-3.22;66.23;101628.06;5014142;28;20460;-55
2024/01/09 01:35:25;;;;;;;0.20;0.10;;;;;;;-3.17;66.64;101622.25;5014284;28;20465;-55
2024/01/09 01:37:51;;;;;;;0.20;0.10;;;;;;;-3.58;66.56;101626.31;5013667;28;20942;-54
2024/01/09 01:40:18;;;;;;;0.20;0.10;;;;;;;-3.58;67.49;101628.03;5014259;28;20562;-55
2024/01/09 01:42:44;;;;;;;0.20;0.10;;;;;;;-3.60;67.64;101627.06;5014456;28;20453;-54
2024/01/09 01:45:16;;;;;;;0.20;0.10;;;;;;;-3.47;67.89;101629.44;4999954;28;20987;-55
2024/01/09 01:47:45;;;;;;;0.20;0.10;;;;;;;-3.49;67.36;101623.28;5001296;28;20448;-55
2024/01/09 01:50:14;;;;;;;0.20;0.10;;;;;;;-3.51;68.55;101617.13;5000705;28;20460;-54
2024/01/09 01:52:46;;;;;;;0.20;0.10;;;;;;;-3.29;67.39;101614.78;5013932;28;20460;-54
2024/01/09 01:55:14;;;;;;;0.20;0.10;;;;;;;-3.11;67.45;101617.34;5011589;28;20534;-55
2024/01/09 01:57:42;;;;;;;0.20;0.10;;;;;;;-3.25;66.67;101613.22;5002668;28;20526;-55
2024/01/09 02:00:10;;;;;;;0.20;0.10;;;;;;;-3.47;68.14;101619.06;5011483;28;20493;-55
2024/01/09 02:02:37;;;;;;;0.20;0.10;;;;;;;-3.48;68.00;101614.69;5003169;28;20893;-55
2024/01/09 02:05:06;;;;;;;0.20;0.10;;;;;;;-3.53;67.61;101610.97;5013280;28;21014;-54
2024/01/09 02:07:34;;;;;;;0.20;0.10;;;;;;;-3.62;67.64;101605.31;5013742;28;20481;-55
2024/01/09 02:10:02;;;;;;;0.20;0.10;;;;;;;-3.56;68.86;101603.03;5010118;28;20541;-55
2024/01/09 02:12:29;;;;;;;0.20;0.10;;;;;;;-3.56;67.98;101613.44;5004693;28;20522;-54
2024/01/09 02:14:55;;;;;;;0.20;0.10;;;;;;;-3.45;67.88;101607.03;5013470;28;20472;-54
2024/01/09 02:17:22;;;;;;;0.20;0.10;;;;;;;-3.33;67.74;101597.22;5002832;28;20511;-55
2024/01/09 02:19:48;;;;;;;0.20;0.10;;;;;;;-3.20;67.84;101603.91;5010894;28;20492;-54
2024/01/09 02:22:15;;;;;;;0.20;0.10;;;;;;;-3.40;67.36;101602.97;5013424;28;20957;-55
2024/01/09 02:24:41;;;;;;;0.20;0.10;;;;;;;-3.67;68.67;101605.09;4999621;28;20552;-54
2024/01/09 02:27:20;;;;;;;0.20;0.10;;;;;;;-3.63;68.69;101600.94;5012014;28;20495;-54
2024/01/09 02:29:48;;;;;;;0.20;0.10;;;;;;;-3.61;69.07;101609.69;5006262;28;20441;-54
2024/01/09 02:32:16;;;;;;;0.20;0.10;;;;;;;-3.68;68.31;101608.50;5006092;28;20956;-53
2024/01/09 02:34:44;;;;;;;0.20;0.10;;;;;;;-3.52;67.79;101607.56;5002164;28;20898;-53
2024/01/09 02:37:11;;;;;;;0.20;0.10;;;;;;;-3.54;67.86;101593.59;4999820;28;20519;-53
2024/01/09 02:39:38;;;;;;;0.20;0.10;;;;;;;-3.66;68.34;101599.09;5012918;28;20492;-54
2024/01/09 02:42:04;;;;;;;0.20;0.10;;;;;;;-3.54;67.71;101600.50;5013448;28;20484;-53
2024/01/09 02:44:31;;;;;;;0.20;0.10;;;;;;;-3.07;67.49;101600.19;5005889;28;20498;-54
2024/01/09 02:46:57;;;;;;;0.20;0.10;;;;;;;-3.11;67.01;101596.56;5007199;28;20448;-54
2024/01/09 02:49:24;;;;;;;0.20;0.10;;;;;;;-3.45;67.11;101587.94;5013086;28;20453;-54
2024/01/09 02:51:50;;;;;;;0.20;0.10;;;;;;;-3.24;66.66;101598.50;5013030;28;20456;-55
2024/01/09 02:54:17;;;;;;;0.20;0.13;;;;;;;-3.23;66.86;101595.97;5013310;28;20587;-51
2024/01/09 02:56:44;;;;;;;0.20;0.10;;;;;;;-3.20;66.33;101593.50;4999039;28;20452;-51
2024/01/09 02:59:11;;;;;;;0.20;0.10;;;;;;;-3.31;67.04;101590.38;5012066;28;20853;-52
2024/01/09 03:01:37;;;;;;;0.20;0.10;;;;;;;-3.35;67.15;101583.28;4998843;28;20521;-51
2024/01/09 03:04:04;;;;;;;0.20;0.10;;;;;;;-3.29;67.61;101590.47;5012160;28;20554;-52
2024/01/09 03:06:30;;;;;;;0.20;0.10;;;;;;;-3.52;66.94;101588.47;4998180;28;20972;-51
2024/01/09 03:08:57;;;;;;;0.20;0.10;;;;;;;-3.28;67.50;101587.97;5012102;28;20452;-53
2024/01/09 03:11:23;;;;;;;0.20;0.10;;;;;;;-3.41;68.26;101585.59;5010876;28;20567;-51
2024/01/09 03:13:50;;;;;;;0.20;0.10;;;;;;;-3.28;66.81;101572.38;4999816;28;20456;-52
2024/01/09 03:16:16;;;;;;;0.20;0.10;;;;;;;-3.47;67.35;101581.78;5011629;28;20515;-51
2024/01/09 03:18:44;;;;;;;0.20;0.10;;;;;;;-3.64;67.79;101581.84;5010704;28;20484;-51
2024/01/09 03:21:11;;;;;;;0.20;0.10;;;;;;;-3.47;66.56;101585.28;5010112;28;20492;-51
2024/01/09 03:23:37;;;;;;;0.20;0.10;;;;;;;-3.48;68.46;101578.28;4999603;28;20495;-52
2024/01/09 03:26:04;;;;;;;0.20;0.10;;;;;;;-3.37;67.47;101573.63;5008895;28;20846;-52
2024/01/09 03:28:30;;;;;;;0.20;0.10;;;;;;;-3.51;68.57;101577.25;5011732;28;20449;-51
2024/01/09 03:30:56;;;;;;;0.20;0.10;;;;;;;-3.47;68.46;101576.59;4998618;28;20460;-54
2024/01/09 03:33:23;;;;;;;0.20;0.10;;;;;;;-3.44;68.14;101572.41;5011861;28;20453;-51
2024/01/09 03:35:50;;;;;;;0.20;0.10;;;;;;;-3.62;67.42;101576.72;5011455;28;20998;-51
2024/01/09 03:38:16;;;;;;;0.20;0.10;;;;;;;-3.46;67.70;101571.47;5013998;28;20787;-51
2024/01/09 03:40:43;;;;;;;0.20;0.10;;;;;;;-3.48;68.10;101565.31;5015494;28;20910;-51
2024/01/09 03:43:09;;;;;;;0.20;0.10;;;;;;;-3.57;68.06;101570.03;5015722;28;20803;-51
2024/01/09 03:45:36;;;;;;;0.20;0.10;;;;;;;-3.50;67.45;101560.84;5002023;28;20563;-52
2024/01/09 03:48:03;;;;;;;0.20;0.10;;;;;;;-3.45;67.32;101564.56;5015536;28;20503;-53
2024/01/09 03:50:29;;;;;;;0.20;0.10;;;;;;;-3.59;68.93;101569.09;5012583;28;20453;-52
2024/01/09 03:52:56;;;;;;;0.20;0.10;;;;;;;-3.76;67.81;101572.56;5005399;28;20475;-52
2024/01/09 03:55:23;;;;;;;0.20;0.10;;;;;;;-3.55;68.07;101559.75;5014588;28;20599;-51
2024/01/09 03:57:49;;;;;;;0.20;0.10;;;;;;;-3.82;68.09;101561.88;5015396;28;20449;-52
2024/01/09 04:00:16;;;;;;;0.20;0.10;;;;;;;-3.60;68.58;101559.50;5011826;28;20515;-51
2024/01/09 04:02:43;;;;;;;0.20;0.10;;;;;;;-3.57;68.86;101555.34;5005436;28;20826;-52
2024/01/09 04:05:09;;;;;;;0.20;0.10;;;;;;;-3.85;67.91;101551.31;5011775;28;20477;-52
2024/01/09 04:07:36;;;;;;;0.20;0.10;;;;;;;-3.54;68.52;101552.03;5005273;28;20449;-51
2024/01/09 04:10:03;;;;;;;0.20;0.10;;;;;;;-3.42;67.32;101552.63;5015186;28;20964;-51
2024/01/09 04:12:29;;;;;;;0.20;0.10;;;;;;;-3.57;67.56;101557.06;5015343;28;20456;-50
2024/01/09 04:14:56;;;;;;;0.20;0.10;;;;;;;-3.58;67.28;101553.56;5001709;28;20468;-51
2024/01/09 04:17:22;;;;;;;0.20;0.10;;;;;;;-3.66;68.01;101559.22;5014843;28;20456;-51
2024/01/09 04:19:49;;;;;;;0.20;0.10;;;;;;;-3.67;68.92;101562.63;5010937;28;20449;-51
2024/01/09 04:22:15;;;;;;;0.20;0.10;;;;;;;-3.68;67.90;101559.16;5005792;28;20456;-51
2024/01/09 04:24:42;;;;;;;0.20;0.10;;;;;;;-3.52;67.30;101565.97;5014812;28;20468;-50
2024/01/09 04:27:08;;;;;;;0.20;0.10;;;;;;;-3.50;67.04;101566.94;5014823;28;20479;-53
2024/01/09 04:29:35;;;;;;;0.20;0.10;;;;;;;-3.60;67.34;101567.31;5010362;28;20892;-52
2024/01/09 04:32:02;;;;;;;0.20;0.10;;;;;;;-3.59;66.92;101558.69;5005281;28;20518;-52
2024/01/09 04:34:28;;;;;;;0.20;0.10;;;;;;;-3.97;67.74;101559.41;5012137;28;20472;-51
2024/01/09 04:36:54;;;;;;;0.20;0.10;;;;;;;-3.98;68.47;101574.06;5014583;28;20818;-51
2024/01/09 04:39:21;;;;;;;0.20;0.10;;;;;;;-4.07;68.83;101570.16;5014114;28;20452;-51
2024/01/09 04:41:47;;;;;;;0.20;0.10;;;;;;;-4.00;69.16;101569.63;5014470;28;20502;-50
2024/01/09 04:44:14;;;;;;;0.20;0.10;;;;;;;-3.86;68.33;101571.22;5014249;28;20559;-51
2024/01/09 04:46:40;;;;;;;0.20;0.10;;;;;;;-3.88;68.06;101576.31;5002714;28;20457;-51
2024/01/09 04:49:07;;;;;;;0.20;0.10;;;;;;;-3.84;68.15;101571.28;5011915;28;20961;-51
2024/01/09 04:51:33;;;;;;;0.20;0.10;;;;;;;-3.80;67.81;101568.03;5014224;28;20567;-50
2024/01/09 04:54:00;;;;;;;0.20;0.10;;;;;;;-3.63;68.04;101567.16;5001035;28;20560;-52
2024/01/09 04:56:27;;;;;;;0.83;0.83;;;;;;;-3.72;67.66;101571.88;5013943;28;20551;-51
2024/01/09 04:58:53;;;;;;;0.20;0.10;;;;;;;-3.55;67.53;101575.34;5013935;28;20910;-51
2024/01/09 05:01:21;;;;;;;0.20;0.10;;;;;;;-3.60;66.93;101576.00;5001305;28;20484;-50
2024/01/09 05:03:49;;;;;;;0.20;0.10;;;;;;;-3.81;67.91;101574.94;5013696;28;20453;-50
2024/01/09 05:06:17;;;;;;;0.20;0.10;;;;;;;-3.85;68.18;101579.88;5014109;28;20484;-51
2024/01/09 05:08:45;;;;;;;0.20;0.10;;;;;;;-3.69;67.87;101566.88;5001126;28;20465;-52
2024/01/09 05:11:12;;;;;;;0.20;0.10;;;;;;;-4.01;68.40;101571.31;5000638;28;20462;-51
2024/01/09 05:13:42;;;;;;;0.20;0.10;;;;;;;-3.79;67.93;101582.81;5013861;28;20484;-51
2024/01/09 05:16:08;;;;;;;0.20;0.10;;;;;;;-3.82;67.85;101573.16;5013318;28;20533;-51
2024/01/09 05:18:34;;;;;;;0.20;0.10;;;;;;;-4.10;68.06;101575.19;5001495;28;20559;-51
2024/01/09 05:21:02;;;;;;;0.20;0.10;;;;;;;-4.17;69.05;101571.38;5013610;28;20516;-50
2024/01/09 05:23:29;;;;;;;0.20;0.10;;;;;;;-4.13;68.45;101573.31;5013733;28;20460;-51
2024/01/09 05:25:55;;;;;;;0.20;0.10;;;;;;;-4.14;68.76;101573.22;5000496;28;20477;-50
2024/01/09 05:28:22;;;;;;;0.20;0.10;;;;;;;-4.07;68.41;101564.94;5013001;28;20478;-50
2024/01/09 05:30:48;;;;;;;0.20;0.10;;;;;;;-4.16;69.02;101570.56;5000170;28;20454;-51
2024/01/09 05:33:15;;;;;;;0.20;0.10;;;;;;;-4.21;68.70;101570.34;5013664;28;20501;-51
2024/01/09 05:35:42;;;;;;;0.20;0.10;;;;;;;-4.10;69.14;101564.81;5013455;28;20468;-50
2024/01/09 05:38:08;;;;;;;0.20;0.10;;;;;;;-4.26;68.61;101560.50;5012974;28;20503;-52
2024/01/09 05:40:44;;;;;;;0.20;0.10;;;;;;;-4.30;69.39;101567.25;5013183;28;20527;-51
2024/01/09 05:43:10;;;;;;;0.20;0.10;;;;;;;-4.26;69.11;101568.28;5013290;28;20534;-50
2024/01/09 05:45:36;;;;;;;0.20;0.10;;;;;;;-4.32;69.60;101570.59;5013178;28;20902;-51
2024/01/09 05:48:03;;;;;;;0.20;0.10;;;;;;;-4.46;70.10;101569.88;5003583;28;20904;-50
2024/01/09 05:50:30;;;;;;;0.20;0.10;;;;;;;-4.33;69.22;101566.22;5009981;28;20457;-51
2024/01/09 05:52:57;;;;;;;0.20;0.10;;;;;;;-4.31;69.62;101570.66;5012970;28;20459;-50
2024/01/09 05:55:23;;;;;;;0.20;0.10;;;;;;;-4.48;70.02;101572.38;4999730;28;20503;-51
2024/01/09 05:57:50;;;;;;;0.20;0.10;;;;;;;-4.56;70.30;101575.38;5013180;28;20536;-52
2024/01/09 06:00:16;;;;;;;0.20;0.10;;;;;;;-4.50;70.35;101573.13;5008011;28;20450;-50
2024/01/09 06:02:43;;;;;;;0.20;0.10;;;;;;;-4.48;69.69;101569.78;5003618;28;20452;-51
2024/01/09 06:05:10;;;;;;;0.20;0.10;;;;;;;-4.12;69.44;101574.19;5012870;28;20476;-51
2024/01/09 06:07:36;;;;;;;0.20;0.10;;;;;;;-4.24;69.02;101579.66;5001953;28;20449;-52
2024/01/09 06:10:03;;;;;;;0.20;0.10;;;;;;;-4.12;69.29;101569.00;5010211;28;20455;-53
2024/01/09 06:12:29;;;;;;;0.20;0.10;;;;;;;-4.03;68.48;101574.66;5004871;28;20454;-54
2024/01/09 06:14:57;;;;;;;0.20;0.10;;;;;;;-4.17;68.38;101568.78;5008051;28;20473;-54
2024/01/09 06:17:23;;;;;;;0.20;0.10;;;;;;;-4.27;68.96;101576.88;5001308;28;20454;-54
2024/01/09 06:19:50;;;;;;;0.20;0.10;;;;;;;-4.01;68.27;101580.81;5002285;28;21003;-53
2024/01/09 06:22:16;;;;;;;0.20;0.10;;;;;;;-4.18;68.80;101567.88;5007698;28;20996;-54
2024/01/09 06:24:43;;;;;;;0.20;0.10;;;;;;;-4.08;68.07;101565.78;5009306;28;20516;-53
2024/01/09 06:27:09;;;;;;;0.20;0.10;;;;;;;-4.08;68.83;101571.84;5005063;28;20459;-54
2024/01/09 06:29:36;;;;;;;0.20;0.10;;;;;;;-3.89;68.84;101573.66;5008775;28;20529;-54
2024/01/09 06:32:02;;;;;;;0.20;0.10;;;;;;;-3.94;68.02;101575.16;5007298;28;20459;-54
2024/01/09 06:34:29;;;;;;;0.20;0.10;;;;;;;-4.11;69.12;101574.31;5010713;28;20472;-54
2024/01/09 06:36:55;;;;;;;0.20;0.10;;;;;;;-3.79;68.07;101580.22;5010913;28;20480;-51
2024/01/09 06:39:23;;;;;;;0.20;0.10;;;;;;;-3.87;67.51;101585.91;5012100;28;20495;-51
2024/01/09 06:41:50;;;;;;;0.20;0.10;;;;;;;-3.98;67.59;101575.78;5007616;28;20496;-51
2024/01/09 06:44:16;;;;;;;0.20;0.10;;;;;;;-4.19;66.82;101584.28;5008065;28;20959;-50
2024/01/09 06:46:43;;;;;;;0.20;0.10;;;;;;;-4.24;68.13;101580.56;5010697;28;20453;-51
2024/01/09 06:49:09;;;;;;;0.20;0.10;;;;;;;-4.34;67.60;101586.06;5011749;28;20968;-52
2024/01/09 06:51:35;;;;;;;0.20;0.10;;;;;;;-4.25;68.73;101580.44;5011415;28;20461;-51
2024/01/09 06:54:02;;;;;;;0.20;0.10;;;;;;;-4.51;69.39;101582.59;4999640;28;21020;-50
2024/01/09 06:56:29;;;;;;;0.20;0.10;;;;;;;-4.44;69.00;101594.19;5000877;28;20527;-51
2024/01/09 06:58:55;;;;;;;0.20;0.10;;;;;;;-4.41;68.30;101586.56;5006808;28;21017;-51
2024/01/09 07:01:22;;;;;;;0.20;0.10;;;;;;;-4.40;68.89;101588.34;5006310;28;20492;-51
2024/01/09 07:03:48;;;;;;;0.20;0.10;;;;;;;-4.43;68.41;101583.00;5005982;28;21021;-50
2024/01/09 07:06:15;;;;;;;0.20;0.10;;;;;;;-4.37;68.16;101585.03;5011143;28;20459;-52
2024/01/09 07:08:42;;;;;;;0.20;0.10;;;;;;;-4.40;68.00;101588.34;5011621;28;20487;-51
2024/01/09 07:11:08;;;;;;;0.20;0.10;;;;;;;-4.34;68.12;101588.66;5011706;28;20452;-50
2024/01/09 07:13:35;;;;;;;0.20;0.10;;;;;;;-4.23;67.95;101581.44;5010955;28;20822;-51
2024/01/09 07:16:01;;;;;;;0.20;0.10;;;;;;;-4.39;67.71;101584.03;5011123;28;20477;-53
2024/01/09 07:18:28;;;;;;;0.20;0.10;;;;;;;-4.38;68.62;101583.25;5005637;28;20493;-50
2024/01/09 07:20:55;;;;;;;0.20;0.10;;;;;;;-4.37;68.40;101582.44;5004111;28;20494;-51
2024/01/09 07:23:21;;;;;;;0.20;0.10;;;;;;;-4.49;68.62;101588.75;5001149;28;20465;-50
2024/01/09 07:25:48;;;;;;;0.20;0.10;;;;;;;-4.30;68.42;101592.31;4997676;28;21018;-51
2024/01/09 07:28:15;;;;;;;0.20;0.10;;;;;;;-4.20;68.35;101597.19;5000561;28;20449;-51
2024/01/09 07:30:41;;;;;;;0.20;0.10;;;;;;;-4.53;68.57;101593.69;5007050;28;20484;-51
2024/01/09 07:33:08;;;;;;;0.20;0.10;;;;;;;-4.42;68.43;101597.75;5011727;28;20456;-51
2024/01/09 07:35:37;;;;;;;0.20;0.10;;;;;;;-4.45;68.79;101604.47;5011144;28;20526;-51
2024/01/09 07:38:04;;;;;;;0.20;0.10;;;;;;;-4.29;68.94;101602.75;5010527;28;20467;-51
2024/01/09 07:40:30;;;;;;;0.20;0.10;;;;;;;-4.28;68.37;101598.47;5007856;28;20900;-50
2024/01/09 07:42:58;;;;;;;0.20;0.10;;;;;;;-4.24;68.58;101603.03;4992811;28;20489;-50
2024/01/09 07:45:28;;;;;;;0.20;0.10;;;;;;;-4.34;68.69;101601.66;5004309;28;20504;-51
2024/01/09 07:47:56;;;;;;;0.20;0.10;;;;;;;-4.33;68.65;101605.13;5000273;28;20449;-52
2024/01/09 07:50:22;;;;;;;0.20;0.10;;;;;;;-4.43;68.80;101605.44;4997212;28;20482;-50
2024/01/09 07:52:49;;;;;;;0.20;0.10;;;;;;;-4.23;68.82;101602.22;5000997;28;20457;-51
2024/01/09 07:55:15;;;;;;;0.20;0.10;;;;;;;-4.31;69.23;101611.28;5010967;28;20562;-50
2024/01/09 07:57:42;;;;;;;0.30;0.10;;;;;;;-3.96;68.19;101603.63;5011240;28;20459;-51
2024/01/09 08:00:09;;;;;;;0.20;0.10;;;;;;;-3.91;68.30;101604.75;5008048;28;20886;-51
2024/01/09 08:02:35;;;;;;;0.20;0.10;;;;;;;-3.80;68.01;101601.81;5004498;28;20503;-51
2024/01/09 08:05:02;;;;;;;0.20;0.10;;;;;;;-3.76;67.55;101603.72;5011124;28;20461;-51
2024/01/09 08:07:30;;;;;;;0.20;0.10;;;;;;;-3.82;67.29;101601.72;4998658;28;20493;-51
2024/01/09 08:09:56;;;;;;;0.20;0.10;;;;;;;-3.63;67.18;101614.81;5005171;28;20818;-51
2024/01/09 08:12:22;;;;;;;0.20;0.10;;;;;;;-3.53;66.00;101610.09;5002364;28;20987;-52
2024/01/09 08:14:49;;;;;;;0.20;0.10;;;;;;;-3.53;65.96;101615.28;5011127;28;20555;-52
2024/01/09 08:17:16;;;;;;;0.20;0.10;;;;;;;-3.94;66.76;101608.91;5000284;28;20966;-52
2024/01/09 08:19:44;;;;;;;0.20;0.10;;;;;;;-3.97;67.00;101599.25;5008755;28;20495;-51
2024/01/09 08:22:11;;;;;;;0.20;0.10;;;;;;;-3.92;67.23;101612.47;5011473;28;20520;-52
2024/01/09 08:24:38;;;;;;;0.20;0.10;;;;;;;-3.76;66.69;101607.22;5003093;28;20484;-52
2024/01/09 08:27:04;;;;;;;0.20;0.10;;;;;;;-3.63;66.29;101611.31;5013187;28;20460;-52
2024/01/09 08:29:31;;;;;;;0.20;0.10;;;;;;;-3.69;65.75;101606.72;5013898;28;20499;-51
2024/01/09 08:31:57;;;;;;;0.20;0.10;;;;;;;-3.72;66.01;101613.44;5014740;28;20464;-51
2024/01/09 08:34:24;;;;;;;0.20;0.10;;;;;;;-3.57;65.65;101607.31;5014547;28;20966;-51
2024/01/09 08:36:51;;;;;;;0.20;0.10;;;;;;;-3.49;65.26;101609.41;5014593;28;20483;-51
2024/01/09 08:39:17;;;;;;;0.20;0.10;;;;;;;-3.38;63.26;101605.63;5014196;28;20499;-52
2024/01/09 08:41:43;;;;;;;0.20;0.10;;;;;;;-3.44;63.50;101606.19;5003919;28;20489;-51
2024/01/09 08:44:10;;;;;;;0.20;0.10;;;;;;;-3.30;62.59;101604.28;5011516;28;20559;-52
2024/01/09 08:46:37;;;;;;;0.20;0.10;;;;;;;-3.19;62.57;101600.50;5014096;28;20496;-52
2024/01/09 08:49:03;;;;;;;0.20;0.10;;;;;;;-3.10;61.59;101602.66;5006736;28;20552;-51
2024/01/09 08:51:30;;;;;;;0.20;0.10;;;;;;;-3.03;60.49;101600.41;5000092;28;20444;-51
2024/01/09 08:53:56;;;;;;;0.20;0.10;;;;;;;-2.84;60.64;101589.16;5005950;28;20473;-51
2024/01/09 08:56:23;;;;;;;0.20;0.10;;;;;;;-2.65;60.17;101603.00;4995194;28;20461;-51
2024/01/09 08:58:50;;;;;;;0.20;0.10;;;;;;;-2.57;60.53;101599.06;5008954;28;20453;-51
2024/01/09 09:01:20;;;;;;;0.20;0.10;;;;;;;-2.75;59.67;101596.47;5003524;28;20449;-51
2024/01/09 09:03:48;;;;;;;0.20;0.10;;;;;;;-2.78;58.91;101593.75;5009394;28;20526;-51
2024/01/09 09:06:14;;;;;;;0.20;0.10;;;;;;;-2.34;59.06;101595.75;5018750;28;20544;-52
2024/01/09 09:08:41;;;;;;;0.20;0.10;;;;;;;-2.40;58.92;101598.97;5025509;28;20889;-51
2024/01/09 09:11:07;;;;;;;0.20;0.10;;;;;;;-2.45;58.14;101602.22;5003578;28;20449;-51
2024/01/09 09:13:34;;;;;;;0.20;0.10;;;;;;;-2.36;57.52;101599.09;5013731;28;20460;-51
2024/01/09 09:16:00;;;;;;;0.20;0.10;;;;;;;-2.26;56.95;101602.19;5013833;28;20500;-52
2024/01/09 09:18:27;;;;;;;0.30;0.20;;;;;;;-2.26;56.38;101596.09;5000469;28;20543;-51
2024/01/09 09:20:54;;;;;;;0.20;0.10;;;;;;;-2.19;55.95;101590.34;5013162;28;20824;-52
2024/01/09 09:23:20;;;;;;;0.20;0.10;;;;;;;-2.26;55.76;101601.31;5000547;28;20869;-51
2024/01/09 09:25:47;;;;;;;0.20;0.10;;;;;;;-2.08;56.63;101592.56;5013945;28;20534;-51
2024/01/09 09:28:14;;;;;;;0.20;0.10;;;;;;;-1.88;56.51;101596.06;5013223;28;20460;-51
2024/01/09 09:30:40;;;;;;;0.20;0.10;;;;;;;-1.90;56.07;101592.50;5002254;28;20516;-51
2024/01/09 09:33:08;;;;;;;0.20;0.10;;;;;;;-2.02;55.68;101593.69;5013303;28;20452;-52
2024/01/09 09:35:36;;;;;;;0.20;0.10;;;;;;;-1.81;55.46;101595.47;5013179;28;20472;-51
2024/01/09 09:38:04;;;;;;;0.20;0.10;;;;;;;-1.84;54.77;101586.63;5007577;28;20461;-51
2024/01/09 09:40:31;;;;;;;0.20;0.10;;;;;;;-1.78;54.71;101594.72;5013133;28;20548;-53
2024/01/09 09:42:58;;;;;;;0.20;0.10;;;;;;;-1.67;54.12;101590.84;5013366;28;20861;-51
2024/01/09 09:45:25;;;;;;;0.20;0.10;;;;;;;-1.57;52.69;101597.34;5000176;28;21002;-51
2024/01/09 09:47:55;;;;;;;0.20;0.10;;;;;;;-1.56;53.26;101599.09;5013515;28;20452;-50
2024/01/09 09:50:23;;;;;;;0.20;0.10;;;;;;;-1.36;53.19;101593.00;5011021;28;20449;-52
2024/01/09 09:52:49;;;;;;;0.20;0.10;;;;;;;-1.42;53.00;101591.84;5011946;28;20456;-51
2024/01/09 09:55:17;;;;;;;0.20;0.10;;;;;;;-1.52;51.88;101594.06;5012606;28;20576;-51
2024/01/09 09:57:44;;;;;;;0.20;0.10;;;;;;;-1.54;52.27;101593.13;5013315;28;20456;-51
2024/01/09 10:00:11;;;;;;;0.20;0.10;;;;;;;-1.56;51.65;101593.91;5009630;28;20545;-51
2024/01/09 10:02:43;;;;;;;0.20;0.10;;;;;;;-1.53;51.13;101597.50;5003191;28;20560;-51
2024/01/09 10:05:14;;;;;;;0.20;0.10;;;;;;;-1.43;51.33;101590.06;5008025;28;20935;-51
2024/01/09 10:07:44;;;;;;;0.20;0.10;;;;;;;-1.38;50.61;101591.13;5005061;28;20444;-51
2024/01/09 10:10:14;;;;;;;0.20;0.10;;;;;;;-1.18;51.08;101582.41;5011754;28;20459;-51
2024/01/09 10:12:41;;;;;;;0.20;0.10;;;;;;;-1.30;50.58;101581.91;5012124;28;20491;-51
2024/01/09 10:15:12;;;;;;;0.20;0.10;;;;;;;-1.30;50.61;101587.13;5004954;28;20914;-51
2024/01/09 10:17:40;;;;;;;0.20;0.10;;;;;;;-1.27;50.23;101580.31;5006605;28;20479;-52
2024/01/09 10:20:08;;;;;;;0.20;0.10;;;;;;;-1.04;50.30;101580.34;5011439;28;20449;-51
2024/01/09 10:22:38;;;;;;;0.20;0.10;;;;;;;-1.13;49.89;101582.59;5012545;28;20548;-51
2024/01/09 10:25:07;;;;;;;0.20;0.10;;;;;;;-1.01;48.68;101578.75;5006350;28;20461;-51
2024/01/09 10:27:37;;;;;;;0.20;0.10;;;;;;;-0.98;48.75;101575.34;5000886;28;20540;-53
2024/01/09 10:30:04;;;;;;;0.20;0.10;;;;;;;-1.06;48.78;101574.19;5003748;28;20516;-53
2024/01/09 10:32:33;;;;;;;0.20;0.10;;;;;;;-0.93;49.04;101582.53;5007883;28;20464;-52
2024/01/09 10:35:00;;;;;;;0.20;0.10;;;;;;;-1.03;49.01;101580.41;5012250;28;20496;-52
2024/01/09 10:37:27;;;;;;;0.20;0.10;;;;;;;-1.05;48.26;101571.63;5012537;28;20456;-51
2024/01/09 10:39:53;;;;;;;0.20;0.10;;;;;;;-0.80;48.72;101572.59;5012513;28;20579;-51
2024/01/09 10:42:20;;;;;;;0.20;0.10;;;;;;;-0.90;48.30;101563.50;5008070;28;20504;-52
2024/01/09 10:44:49;;;;;;;0.20;0.10;;;;;;;-1.00;47.48;101557.03;5011623;28;20909;-53
2024/01/09 10:47:17;;;;;;;0.20;0.10;;;;;;;-0.95;47.32;101554.63;5011086;28;20452;-51
2024/01/09 10:49:45;;;;;;;0.20;0.10;;;;;;;-0.76;47.71;101553.59;5012436;28;20487;-51
2024/01/09 10:52:14;;;;;;;0.20;0.10;;;;;;;-0.68;48.02;101552.16;5012366;28;20449;-53
2024/01/09 10:54:41;;;;;;;0.20;0.10;;;;;;;-0.70;47.45;101561.63;5004395;28;20483;-51
2024/01/09 10:57:14;;;;;;;0.20;0.10;;;;;;;-0.78;47.49;101553.53;4998863;28;20445;-52
2024/01/09 10:59:44;;;;;;;0.20;0.10;;;;;;;-0.71;47.03;101549.41;5000867;28;20452;-50
2024/01/09 11:02:15;;;;;;;0.20;0.10;;;;;;;-0.45;46.95;101539.94;5004185;28;20503;-51
2024/01/09 11:04:45;;;;;;;0.20;0.10;;;;;;;-0.73;46.79;101532.81;5006361;28;20957;-51
2024/01/09 11:07:16;;;;;;;0.20;0.10;;;;;;;-0.54;47.61;101537.00;5012047;28;20879;-51
2024/01/09 11:09:44;;;;;;;0.20;0.10;;;;;;;-0.60;46.68;101538.53;4998695;28;20536;-52
2024/01/09 11:12:20;;;;;;;0.20;0.10;;;;;;;-0.56;46.13;101538.66;5011516;28;20455;-52
2024/01/09 11:14:52;;;;;;;0.20;0.10;;;;;;;-0.25;46.76;101522.38;5002078;28;21084;-52
2024/01/09 11:17:20;;;;;;;0.20;0.10;;;;;;;-0.25;46.63;101524.97;5001563;28;20450;-50
2024/01/09 11:19:47;;;;;;;0.20;0.10;;;;;;;-0.41;45.67;101520.91;5004985;28;20462;-50
2024/01/09 11:22:14;;;;;;;0.20;0.10;;;;;;;-0.36;45.48;101517.66;5002215;28;21009;-51
2024/01/09 11:24:40;;;;;;;0.20;0.10;;;;;;;-0.31;45.75;101515.19;5011509;28;20476;-51